createdAt,value
2018-08-12T00:00:32.702Z,8.90
2018-08-12T00:03:01.406Z,8.70
2018-08-12T00:05:30.095Z,6.97
2018-08-12T00:07:59.056Z,8.90
2018-08-12T00:10:27.784Z,6.93
2018-08-12T00:12:56.470Z,6.30
2018-08-12T00:15:25.231Z,5.33
2018-08-12T00:17:53.954Z,4.77
2018-08-12T00:20:23.619Z,3.27
2018-08-12T00:22:52.523Z,4.10
2018-08-12T00:25:22.678Z,5.03
2018-08-12T00:27:51.455Z,4.70
2018-08-12T00:30:20.669Z,4.00
2018-08-12T00:32:49.383Z,4.10
2018-08-12T00:35:19.095Z,4.00
2018-08-12T00:37:47.775Z,3.47
2018-08-12T00:40:17.458Z,5.70
2018-08-12T00:42:46.556Z,4.13
2018-08-12T00:45:17.833Z,3.33
2018-08-12T00:47:46.714Z,5.00
2018-08-12T00:50:16.212Z,4.63
2018-08-12T00:52:44.970Z,4.30
2018-08-12T00:55:15.166Z,3.77
2018-08-12T00:57:44.951Z,3.90
2018-08-12T01:00:16.887Z,4.63
2018-08-12T01:02:45.571Z,4.03
2018-08-12T01:09:51.938Z,5.93
2018-08-12T01:12:20.590Z,4.30
2018-08-12T01:14:49.226Z,7.67
2018-08-12T01:17:17.904Z,6.07
2018-08-12T01:19:46.583Z,3.53
2018-08-12T01:22:15.225Z,3.40
2018-08-12T01:24:44.002Z,5.33
2018-08-12T01:27:12.718Z,6.03
2018-08-12T01:29:41.390Z,8.10
2018-08-12T01:32:10.063Z,4.83
2018-08-12T01:34:38.720Z,5.20
2018-08-12T01:37:07.334Z,5.47
2018-08-12T01:39:36.020Z,6.43
2018-08-12T01:42:04.754Z,4.20
2018-08-12T01:44:33.430Z,5.13
2018-08-12T01:47:02.089Z,4.40
2018-08-12T01:49:30.705Z,5.43
2018-08-12T01:51:59.461Z,5.67
2018-08-12T01:54:28.276Z,4.73
2018-08-12T01:56:56.899Z,4.07
2018-08-12T01:59:25.552Z,4.80
2018-08-12T02:01:54.214Z,7.30
2018-08-12T02:04:22.902Z,8.70
2018-08-12T02:06:51.575Z,5.37
2018-08-12T02:09:20.231Z,6.67
2018-08-12T02:11:48.847Z,4.40
2018-08-12T02:14:17.490Z,6.40
2018-08-12T02:16:46.127Z,6.80
2018-08-12T02:19:14.774Z,5.47
2018-08-12T02:21:43.470Z,6.10
2018-08-12T02:24:12.086Z,6.23
2018-08-12T02:26:40.731Z,7.60
2018-08-12T02:29:09.331Z,4.90
2018-08-12T02:31:38.116Z,7.40
2018-08-12T02:34:06.772Z,5.23
2018-08-12T02:36:35.407Z,5.73
2018-08-12T02:39:04.514Z,6.70
2018-08-12T02:41:33.178Z,6.67
2018-08-12T02:44:01.848Z,6.07
2018-08-12T02:46:30.516Z,5.17
2018-08-12T02:48:59.203Z,5.47
2018-08-12T02:51:27.865Z,5.23
2018-08-12T02:53:56.950Z,6.63
2018-08-12T02:56:25.654Z,9.90
2018-08-12T02:58:55.360Z,7.33
2018-08-12T03:01:24.007Z,7.17
2018-08-12T03:03:53.269Z,7.30
2018-08-12T03:06:21.972Z,5.43
2018-08-12T03:08:50.636Z,5.10
2018-08-12T03:11:19.338Z,5.07
2018-08-12T03:13:48.106Z,5.40
2018-08-12T03:16:16.759Z,5.67
2018-08-12T03:18:45.402Z,6.03
2018-08-12T03:21:14.043Z,5.97
2018-08-12T03:23:42.709Z,7.13
2018-08-12T03:26:11.434Z,6.27
2018-08-12T03:28:40.061Z,8.30
2018-08-12T03:31:08.716Z,5.53
2018-08-12T03:33:37.345Z,7.47
2018-08-12T03:36:06.005Z,6.60
2018-08-12T03:38:34.650Z,6.30
2018-08-12T03:41:03.372Z,7.13
2018-08-12T03:43:32.083Z,5.87
2018-08-12T03:46:00.737Z,8.07
2018-08-12T03:48:29.404Z,9.60
2018-08-12T03:50:58.080Z,5.90
2018-08-12T03:53:26.713Z,5.23
2018-08-12T03:55:55.342Z,5.80
2018-08-12T03:58:24.011Z,5.50
2018-08-12T04:00:52.687Z,9.20
2018-08-12T04:03:21.442Z,5.87
2018-08-12T04:05:50.108Z,9.10
2018-08-12T04:08:18.748Z,5.30
2018-08-12T04:10:47.432Z,8.00
2018-08-12T04:13:16.125Z,7.93
2018-08-12T04:15:44.783Z,7.80
2018-08-12T04:18:13.511Z,22.93
2018-08-12T04:20:42.184Z,19.83
2018-08-12T04:23:10.894Z,21.43
2018-08-12T04:25:39.557Z,18.57
2018-08-12T04:28:08.191Z,17.50
2018-08-12T04:30:36.927Z,14.87
2018-08-12T04:33:05.542Z,15.67
2018-08-12T04:35:34.203Z,11.77
2018-08-12T04:38:02.881Z,11.93
2018-08-12T04:40:31.576Z,9.87
2018-08-12T04:43:00.281Z,9.80
2018-08-12T04:45:28.918Z,7.40
2018-08-12T04:47:57.601Z,8.23
2018-08-12T04:50:26.299Z,6.27
2018-08-12T04:52:54.942Z,6.97
2018-08-12T04:55:23.589Z,8.17
2018-08-12T04:57:52.244Z,6.70
2018-08-12T05:00:20.925Z,9.30
2018-08-12T05:02:49.606Z,10.17
2018-08-12T05:05:18.256Z,9.43
2018-08-12T05:07:46.902Z,6.10
2018-08-12T05:10:15.558Z,12.17
2018-08-12T05:12:44.166Z,7.63
2018-08-12T05:15:12.849Z,8.53
2018-08-12T05:17:41.490Z,5.50
2018-08-12T05:20:10.750Z,7.27
2018-08-12T05:22:39.948Z,7.63
2018-08-12T05:25:08.745Z,8.53
2018-08-12T05:27:37.542Z,5.50
2018-08-12T05:30:08.134Z,7.67
2018-08-12T05:32:36.895Z,6.47
2018-08-12T05:35:07.639Z,5.47
2018-08-12T05:37:36.424Z,6.50
2018-08-12T05:40:06.893Z,6.23
2018-08-12T05:42:35.590Z,6.90
2018-08-12T05:45:05.231Z,11.70
2018-08-12T05:47:33.874Z,6.30
2018-08-12T05:50:02.635Z,7.50
2018-08-12T05:52:31.288Z,6.57
2018-08-12T05:54:59.990Z,7.63
2018-08-12T05:57:28.636Z,7.60
2018-08-12T05:59:57.351Z,8.07
2018-08-12T06:02:25.968Z,8.40
2018-08-12T06:04:55.055Z,6.63
2018-08-12T06:07:23.733Z,6.60
2018-08-12T06:09:52.440Z,8.70
2018-08-12T06:12:21.226Z,7.47
2018-08-12T06:14:49.887Z,7.00
2018-08-12T06:17:18.675Z,6.63
2018-08-12T06:19:47.301Z,5.97
2018-08-12T06:22:16.661Z,9.13
2018-08-12T06:24:45.312Z,7.63
2018-08-12T06:27:13.935Z,8.40
2018-08-12T06:29:42.622Z,8.07
2018-08-12T06:32:11.238Z,7.57
2018-08-12T06:34:39.967Z,9.83
2018-08-12T06:37:08.633Z,12.43
2018-08-12T06:39:37.294Z,9.00
2018-08-12T06:42:05.958Z,9.20
2018-08-12T06:44:34.655Z,9.80
2018-08-12T06:47:03.378Z,9.37
2018-08-12T06:49:32.082Z,10.00
2018-08-12T06:52:00.801Z,12.87
2018-08-12T06:54:29.446Z,10.90
2018-08-12T06:56:58.122Z,10.63
2018-08-12T06:59:26.756Z,11.17
2018-08-12T07:01:55.439Z,12.90
2018-08-12T07:04:24.124Z,10.27
2018-08-12T07:06:52.807Z,8.73
2018-08-12T07:09:21.444Z,7.87
2018-08-12T07:11:50.118Z,8.80
2018-08-12T07:14:18.802Z,8.37
2018-08-12T07:16:47.503Z,9.53
2018-08-12T07:19:16.141Z,7.77
2018-08-12T07:21:44.812Z,7.07
2018-08-12T07:24:13.454Z,11.50
2018-08-12T07:26:42.279Z,7.20
2018-08-12T07:29:10.892Z,10.43
2018-08-12T07:31:39.561Z,7.97
2018-08-12T07:34:08.290Z,8.77
2018-08-12T07:36:37.030Z,7.43
2018-08-12T07:39:08.166Z,6.83
2018-08-12T07:41:36.803Z,10.77
2018-08-12T07:44:05.517Z,6.83
2018-08-12T07:46:34.798Z,8.83
2018-08-12T07:49:03.611Z,10.93
2018-08-12T07:51:32.379Z,6.57
2018-08-12T07:54:01.084Z,6.53
2018-08-12T07:56:29.771Z,8.10
2018-08-12T07:58:58.505Z,8.37
2018-08-12T08:01:27.199Z,8.97
2018-08-12T08:03:55.910Z,7.43
2018-08-12T08:06:24.666Z,9.23
2018-08-12T08:08:53.337Z,7.73
2018-08-12T08:11:21.980Z,6.03
2018-08-12T08:13:50.653Z,9.07
2018-08-12T08:16:19.374Z,6.83
2018-08-12T08:18:48.011Z,5.90
2018-08-12T08:21:16.599Z,6.20
2018-08-12T08:23:45.315Z,7.03
2018-08-12T08:26:14.012Z,4.03
2018-08-12T08:28:42.687Z,4.73
2018-08-12T08:31:11.385Z,4.23
2018-08-12T08:33:40.029Z,6.10
2018-08-12T08:36:08.856Z,4.60
2018-08-12T08:38:37.533Z,7.37
2018-08-12T08:41:06.486Z,4.23
2018-08-12T08:43:35.187Z,5.40
2018-08-12T08:46:03.858Z,6.10
2018-08-12T08:48:32.549Z,9.40
2018-08-12T08:51:01.193Z,6.00
2018-08-12T08:53:29.890Z,3.70
2018-08-12T08:55:58.639Z,3.77
2018-08-12T08:58:27.239Z,4.67
2018-08-12T09:00:55.861Z,6.67
2018-08-12T09:03:24.548Z,5.97
2018-08-12T09:05:53.180Z,5.47
2018-08-12T09:08:21.977Z,5.27
2018-08-12T09:10:50.519Z,5.97
2018-08-12T09:13:19.206Z,4.30
2018-08-12T09:15:47.906Z,6.70
2018-08-12T09:18:16.614Z,3.40
2018-08-12T09:20:45.302Z,3.73
2018-08-12T09:23:13.984Z,3.23
2018-08-12T09:25:42.627Z,3.67
2018-08-12T09:28:11.280Z,3.03
2018-08-12T09:30:39.897Z,7.30
2018-08-12T09:33:08.694Z,5.20
2018-08-12T09:35:37.340Z,5.10
2018-08-12T09:38:06.002Z,10.18
2018-08-12T09:40:34.729Z,3.27
2018-08-12T09:43:03.482Z,5.30
2018-08-12T09:45:32.163Z,3.57
2018-08-12T09:48:00.869Z,5.03
2018-08-12T09:50:29.564Z,8.53
2018-08-12T09:52:58.294Z,7.73
2018-08-12T09:55:27.007Z,7.77
2018-08-12T09:57:55.726Z,3.93
2018-08-12T10:00:27.865Z,4.07
2018-08-12T10:02:57.379Z,3.53
2018-08-12T10:05:26.075Z,3.20
2018-08-12T10:07:54.722Z,3.97
2018-08-12T10:10:23.482Z,3.77
2018-08-12T10:12:52.219Z,3.50
2018-08-12T10:15:20.919Z,3.23
2018-08-12T10:17:52.558Z,5.67
2018-08-12T10:20:21.279Z,3.40
2018-08-12T10:22:50.114Z,5.33
2018-08-12T10:25:18.825Z,5.50
2018-08-12T10:27:47.492Z,5.63
2018-08-12T10:30:16.335Z,4.23
2018-08-12T10:32:45.363Z,3.35
2018-08-12T10:35:15.651Z,3.30
2018-08-12T10:37:44.610Z,3.33
2018-08-12T10:40:15.094Z,3.72
2018-08-12T10:42:44.558Z,3.10
2018-08-12T10:45:13.625Z,3.87
2018-08-12T10:47:42.611Z,4.25
2018-08-12T10:50:13.585Z,4.72
2018-08-12T10:52:43.489Z,5.47
2018-08-12T10:55:13.269Z,3.00
2018-08-12T10:57:42.182Z,2.90
2018-08-12T11:00:14.445Z,5.53
2018-08-12T11:02:43.465Z,4.22
2018-08-12T11:05:12.336Z,5.22
2018-08-12T11:07:41.024Z,5.37
2018-08-12T11:10:10.571Z,3.60
2018-08-12T11:12:39.412Z,2.98
2018-08-12T11:15:08.963Z,3.72
2018-08-12T11:17:37.901Z,2.77
2018-08-12T11:20:06.997Z,3.80
2018-08-12T11:22:35.695Z,5.47
2018-08-12T11:25:04.960Z,3.00
2018-08-12T11:27:34.063Z,3.10
2018-08-12T11:30:02.763Z,2.62
2018-08-12T11:32:31.406Z,3.70
2018-08-12T11:35:00.106Z,3.55
2018-08-12T11:37:28.798Z,4.35
2018-08-12T11:39:57.500Z,4.85
2018-08-12T11:42:26.152Z,2.80
2018-08-12T11:44:54.758Z,3.83
2018-08-12T11:47:23.571Z,3.40
2018-08-12T11:49:52.171Z,4.78
2018-08-12T11:52:20.856Z,4.95
2018-08-12T11:54:49.523Z,4.92
2018-08-12T11:57:18.151Z,4.67
2018-08-12T11:59:46.856Z,3.55
2018-08-12T12:02:15.557Z,4.85
2018-08-12T12:04:44.159Z,3.67
2018-08-12T12:07:12.791Z,4.72
2018-08-12T12:09:41.448Z,4.00
2018-08-12T12:12:10.109Z,2.77
2018-08-12T12:14:38.818Z,6.80
2018-08-12T12:17:07.542Z,10.63
2018-08-12T12:19:36.350Z,4.65
2018-08-12T12:22:05.153Z,2.98
2018-08-12T12:24:33.822Z,4.97
2018-08-12T12:27:02.487Z,5.25
2018-08-12T12:29:31.236Z,2.60
2018-08-12T12:31:59.959Z,4.22
2018-08-12T12:34:28.551Z,3.30
2018-08-12T12:36:57.210Z,3.83
2018-08-12T12:39:25.855Z,4.75
2018-08-12T12:41:54.525Z,5.47
2018-08-12T12:44:23.273Z,3.35
2018-08-12T12:46:51.971Z,4.70
2018-08-12T12:49:20.697Z,5.72
2018-08-12T12:51:49.352Z,2.85
2018-08-12T12:54:18.022Z,2.55
2018-08-12T12:56:46.739Z,2.25
2018-08-12T12:59:15.870Z,5.30
2018-08-12T13:01:44.643Z,3.25
2018-08-12T13:04:13.344Z,3.47
2018-08-12T13:06:42.174Z,4.42
2018-08-12T13:09:12.843Z,3.85
2018-08-12T13:11:41.650Z,3.60
2018-08-12T13:14:10.330Z,4.65
2018-08-12T13:16:38.990Z,2.90
2018-08-12T13:19:07.719Z,5.28
2018-08-12T13:21:36.386Z,4.17
2018-08-12T13:24:05.171Z,2.70
2018-08-12T13:26:33.846Z,5.97
2018-08-12T13:29:02.530Z,3.02
2018-08-12T13:31:31.234Z,5.80
2018-08-12T13:33:59.880Z,5.53
2018-08-12T13:36:28.531Z,5.62
2018-08-12T13:38:57.230Z,4.85
2018-08-12T13:41:25.906Z,4.72
2018-08-12T13:43:54.722Z,2.42
2018-08-12T13:46:23.425Z,2.90
2018-08-12T13:48:52.110Z,3.52
2018-08-12T13:51:20.827Z,4.17
2018-08-12T13:53:49.505Z,5.53
2018-08-12T13:56:18.186Z,4.22
2018-08-12T13:58:46.873Z,3.70
2018-08-12T14:01:15.499Z,3.50
2018-08-12T14:03:44.148Z,4.80
2018-08-12T14:06:12.861Z,4.20
2018-08-12T14:08:41.570Z,3.22
2018-08-12T14:11:10.264Z,2.62
2018-08-12T14:13:39.058Z,4.80
2018-08-12T14:16:07.731Z,2.42
2018-08-12T14:18:36.531Z,5.83
2018-08-12T14:21:05.386Z,4.22
2018-08-12T14:23:33.998Z,2.50
2018-08-12T14:26:02.619Z,3.92
2018-08-12T14:28:31.274Z,3.20
2018-08-12T14:30:59.946Z,5.72
2018-08-12T14:33:28.610Z,3.92
2018-08-12T14:35:57.263Z,4.62
2018-08-12T14:38:25.931Z,3.87
2018-08-12T14:40:54.598Z,4.05
2018-08-12T14:43:23.314Z,4.78
2018-08-12T14:45:51.962Z,3.02
2018-08-12T14:48:20.618Z,2.10
2018-08-12T14:50:49.290Z,5.08
2018-08-12T14:53:17.948Z,3.10
2018-08-12T14:55:46.598Z,2.30
2018-08-12T14:58:15.249Z,2.45
2018-08-12T15:00:43.867Z,10.90
2018-08-12T15:03:12.504Z,2.67
2018-08-12T15:05:41.119Z,2.45
2018-08-12T15:08:10.095Z,3.70
2018-08-12T15:10:38.821Z,2.98
2018-08-12T15:13:07.495Z,5.40
2018-08-12T15:15:36.166Z,4.58
2018-08-12T15:18:05.008Z,3.00
2018-08-12T15:20:33.689Z,6.30
2018-08-12T15:23:02.398Z,4.83
2018-08-12T15:25:31.119Z,3.77
2018-08-12T15:27:59.802Z,4.62
2018-08-12T15:30:28.456Z,3.70
2018-08-12T15:32:57.127Z,5.45
2018-08-12T15:35:25.790Z,4.55
2018-08-12T15:37:54.461Z,2.20
2018-08-12T15:40:23.149Z,3.30
2018-08-12T15:42:51.830Z,3.50
2018-08-12T15:45:20.535Z,5.15
2018-08-12T15:47:49.144Z,4.47
2018-08-12T15:50:18.030Z,2.58
2018-08-12T15:52:47.209Z,4.62
2018-08-12T15:55:15.953Z,2.77
2018-08-12T15:57:44.622Z,2.85
2018-08-12T16:00:16.891Z,2.67
2018-08-12T16:02:45.823Z,4.03
2018-08-12T16:05:14.574Z,3.10
2018-08-12T16:07:44.070Z,2.52
2018-08-12T16:10:20.027Z,5.12
2018-08-12T16:12:49.843Z,3.33
2018-08-12T16:15:18.546Z,2.17
2018-08-12T16:17:47.232Z,2.40
2018-08-12T16:20:15.882Z,2.25
2018-08-12T16:22:44.668Z,2.58
2018-08-12T16:25:16.984Z,2.12
2018-08-12T16:27:45.885Z,4.33
2018-08-12T16:30:15.887Z,3.12
2018-08-12T16:32:44.614Z,4.60
2018-08-12T16:35:14.796Z,2.77
2018-08-12T16:37:44.128Z,3.30
2018-08-12T16:40:16.502Z,2.85
2018-08-12T16:42:45.378Z,4.65
2018-08-12T16:45:15.116Z,4.60
2018-08-12T16:47:44.278Z,3.55
2018-08-12T16:50:13.104Z,5.62
2018-08-12T16:52:42.221Z,6.75
2018-08-12T16:55:13.048Z,3.58
2018-08-12T16:57:41.999Z,3.90
2018-08-12T17:00:16.388Z,4.25
2018-08-12T17:02:45.759Z,5.03
2018-08-12T17:05:17.758Z,2.60
2018-08-12T17:07:46.486Z,3.58
2018-08-12T17:10:16.325Z,3.37
2018-08-12T17:12:45.041Z,3.92
2018-08-12T17:15:16.016Z,5.87
2018-08-12T17:17:44.642Z,3.45
2018-08-12T17:20:14.841Z,5.03
2018-08-12T17:22:44.238Z,5.42
2018-08-12T17:25:12.895Z,4.72
2018-08-12T17:27:41.694Z,4.17
2018-08-12T17:30:11.760Z,4.47
2018-08-12T17:32:40.931Z,4.33
2018-08-12T17:35:10.071Z,4.20
2018-08-12T17:37:39.307Z,4.63
2018-08-12T17:40:10.130Z,3.90
2018-08-12T17:42:38.873Z,3.93
2018-08-12T17:45:09.828Z,3.83
2018-08-12T17:47:39.874Z,5.43
2018-08-12T17:50:09.942Z,7.27
2018-08-12T17:52:38.660Z,3.17
2018-08-12T17:55:07.921Z,4.10
2018-08-12T17:57:36.707Z,5.33
2018-08-12T18:00:07.814Z,4.60
2018-08-12T18:02:36.518Z,4.67
2018-08-12T18:05:05.894Z,6.17
2018-08-12T18:07:34.563Z,6.30
2018-08-12T18:10:03.300Z,5.90
2018-08-12T18:12:31.984Z,3.13
2018-08-12T18:15:00.768Z,5.47
2018-08-12T18:17:29.538Z,7.00
2018-08-12T18:19:58.186Z,3.20
2018-08-12T18:22:26.891Z,3.83
2018-08-12T18:24:55.547Z,5.47
2018-08-12T18:27:24.400Z,7.10
2018-08-12T18:29:53.076Z,7.83
2018-08-12T18:32:21.727Z,6.40
2018-08-12T18:34:50.352Z,9.30
2018-08-12T18:37:19.022Z,6.60
2018-08-12T18:39:47.722Z,7.43
2018-08-12T18:42:16.464Z,3.50
2018-08-12T18:44:45.130Z,4.90
2018-08-12T18:47:13.758Z,9.43
2018-08-12T18:49:42.382Z,9.70
2018-08-12T18:52:11.056Z,7.83
2018-08-12T18:54:39.738Z,12.87
2018-08-12T18:57:08.400Z,14.57
2018-08-12T18:59:37.043Z,10.80
2018-08-12T19:02:05.802Z,6.93
2018-08-12T19:04:34.447Z,9.57
2018-08-12T19:07:03.171Z,7.13
2018-08-12T19:09:31.840Z,15.53
2018-08-12T19:12:00.590Z,9.93
2018-08-12T19:14:29.223Z,9.60
2018-08-12T19:16:57.951Z,10.93
2018-08-12T19:19:26.610Z,8.53
2018-08-12T19:21:55.277Z,8.53
2018-08-12T19:24:24.080Z,14.00
2018-08-12T19:26:52.756Z,12.27
2018-08-12T19:29:21.451Z,12.37
2018-08-12T19:31:50.151Z,8.03
2018-08-12T19:34:18.785Z,9.77
2018-08-12T19:36:47.460Z,9.77
2018-08-12T19:39:16.156Z,8.40
2018-08-12T19:41:44.853Z,9.13
2018-08-12T19:44:13.509Z,8.70
2018-08-12T19:46:42.241Z,10.90
2018-08-12T19:49:10.939Z,11.63
2018-08-12T19:51:39.754Z,12.40
2018-08-12T19:54:08.457Z,10.93
2018-08-12T19:56:37.226Z,8.73
2018-08-12T19:59:05.938Z,11.43
2018-08-12T20:01:34.560Z,14.30
2018-08-12T20:04:03.279Z,11.30
2018-08-12T20:06:31.998Z,7.27
2018-08-12T20:09:00.606Z,12.23
2018-08-12T20:11:29.321Z,9.37
2018-08-12T20:13:58.023Z,8.50
2018-08-12T20:17:56.186Z,11.10
2018-08-12T20:20:24.882Z,8.07
2018-08-12T20:22:53.632Z,11.77
2018-08-12T20:25:22.347Z,9.83
2018-08-12T20:27:51.074Z,8.33
2018-08-12T20:30:19.881Z,8.40
2018-08-12T20:32:48.647Z,6.60
2018-08-12T20:35:17.276Z,6.43
2018-08-12T20:37:45.893Z,10.03
2018-08-12T20:40:14.595Z,8.10
2018-08-12T20:42:43.313Z,7.57
2018-08-12T20:45:12.019Z,8.67
2018-08-12T20:47:41.099Z,12.93
2018-08-12T20:50:10.090Z,9.47
2018-08-12T20:52:39.466Z,8.07
2018-08-12T20:55:09.127Z,6.20
2018-08-12T20:57:37.835Z,8.37
2018-08-12T21:00:08.077Z,12.73
2018-08-12T21:02:36.772Z,7.87
2018-08-12T21:05:06.448Z,8.63
2018-08-12T21:07:35.168Z,12.07
2018-08-12T21:10:03.868Z,14.13
2018-08-12T21:12:32.563Z,11.63
2018-08-12T21:15:10.145Z,11.70
2018-08-12T21:18:00.264Z,6.43
2018-08-12T21:21:00.760Z,8.17
2018-08-12T21:23:29.423Z,7.07
2018-08-12T21:25:58.077Z,10.27
2018-08-12T21:28:33.609Z,11.40
2018-08-12T21:31:03.878Z,8.97
2018-08-12T21:33:32.688Z,7.80
2018-08-12T21:36:02.517Z,6.20
2018-08-12T21:38:31.499Z,7.00
2018-08-12T21:41:00.178Z,7.17
2018-08-12T21:43:28.896Z,6.77
2018-08-12T21:45:57.608Z,8.00
2018-08-12T21:48:26.235Z,12.47
2018-08-12T21:50:54.902Z,8.23
2018-08-12T21:53:23.556Z,6.83
2018-08-12T21:55:52.244Z,7.30
2018-08-12T21:58:20.857Z,8.07
2018-08-12T22:00:49.517Z,16.77
2018-08-12T22:03:18.276Z,19.67
2018-08-12T22:05:46.943Z,7.60
2018-08-12T22:08:15.631Z,8.87
2018-08-12T22:10:44.294Z,8.80
2018-08-12T22:13:13.003Z,10.90
2018-08-12T22:15:41.785Z,9.53
2018-08-12T22:18:12.458Z,8.37
2018-08-12T22:20:41.236Z,11.50
2018-08-12T22:23:09.943Z,9.17
2018-08-12T22:25:38.566Z,7.87
2018-08-12T22:28:08.256Z,8.67
2018-08-12T22:34:08.930Z,7.33
2018-08-12T22:36:37.567Z,6.23
2018-08-12T22:39:08.300Z,8.40
2018-08-12T22:41:37.016Z,6.40
2018-08-12T22:44:05.715Z,7.90
2018-08-12T22:46:34.326Z,6.93
2018-08-12T22:49:03.039Z,7.97
2018-08-12T22:51:31.812Z,8.73
2018-08-12T22:54:00.520Z,6.00
2018-08-12T22:56:29.223Z,5.73
2018-08-12T22:58:57.943Z,7.53
2018-08-12T23:01:26.683Z,5.43
2018-08-12T23:03:55.401Z,9.07
2018-08-12T23:06:24.074Z,10.00
2018-08-12T23:08:52.759Z,5.80
2018-08-12T23:11:21.419Z,4.73
2018-08-12T23:13:50.151Z,5.63
2018-08-12T23:16:30.514Z,6.40
2018-08-12T23:18:59.144Z,5.63
2018-08-12T23:21:27.770Z,5.93
2018-08-12T23:23:56.416Z,6.20
2018-08-12T23:27:54.179Z,6.30
2018-08-12T23:30:22.879Z,7.50
2018-08-12T23:32:51.552Z,6.03
2018-08-12T23:35:20.237Z,5.07
2018-08-12T23:37:48.838Z,5.80
2018-08-12T23:40:17.466Z,7.37
2018-08-12T23:42:46.176Z,4.67
2018-08-12T23:45:14.764Z,5.13
2018-08-12T23:47:43.422Z,5.07
2018-08-12T23:50:12.137Z,7.57
2018-08-12T23:52:40.777Z,8.13
2018-08-12T23:55:09.477Z,6.07
2018-08-12T23:57:38.216Z,4.83
